Time;durP1;ratioP1;P1;durP2;ratioP2;P2;SDS_P1;SDS_P2;PMS_P1;PMS_P2;Temp;Humidity;BMP_temperature;BMP_pressure;BME280_temperature;BME280_humidity;BME280_pressure;Samples;Min_cycle;Max_cycle;Signal;HPM_P1;HPM_P2
2021/07/17 00:02:23;;;;;;;1999.90;999.90;;;24.60;82.70;;;;;;5047365;28;20420;-70
2021/07/17 00:04:49;;;;;;;1999.90;999.90;;;24.70;83.00;;;;;;5048663;28;20032;-71
2021/07/17 00:07:15;;;;;;;1999.90;999.90;;;24.70;83.10;;;;;;5059453;28;20041;-71
2021/07/17 00:09:41;;;;;;;1999.90;999.90;;;24.70;83.10;;;;;;5049503;28;20032;-71
2021/07/17 00:12:07;;;;;;;1999.90;999.90;;;24.70;83.20;;;;;;5059625;28;20378;-71
2021/07/17 00:14:33;;;;;;;1999.90;999.90;;;24.70;83.40;;;;;;5047020;28;20024;-71
2021/07/17 00:16:59;;;;;;;1999.90;999.90;;;24.70;83.40;;;;;;5059817;28;20043;-71
2021/07/17 00:19:24;;;;;;;1999.90;999.90;;;24.70;83.50;;;;;;5060806;28;20083;-70
2021/07/17 00:21:50;;;;;;;1999.90;999.90;;;24.70;83.50;;;;;;5062863;28;20032;-70
2021/07/17 00:24:16;;;;;;;1999.90;999.90;;;24.70;83.50;;;;;;5032691;28;20057;-70
2021/07/17 00:26:42;;;;;;;1999.90;999.90;;;24.60;83.60;;;;;;5053950;28;20115;-71
2021/07/17 00:29:08;;;;;;;1999.90;999.90;;;24.60;83.70;;;;;;5041546;28;20028;-71
2021/07/17 00:31:33;;;;;;;1999.90;999.90;;;24.60;83.80;;;;;;5068875;28;20033;-71
2021/07/17 00:33:59;;;;;;;1999.90;999.90;;;24.60;83.90;;;;;;5076446;28;20514;-70
2021/07/17 00:36:25;;;;;;;1999.90;999.90;;;24.60;84.00;;;;;;5067366;28;20429;-70
2021/07/17 00:38:51;;;;;;;1999.90;999.90;;;24.60;84.00;;;;;;5060230;28;20524;-71
2021/07/17 00:41:17;;;;;;;1999.90;999.90;;;24.50;84.00;;;;;;5057508;28;20091;-70
2021/07/17 00:43:43;;;;;;;1999.90;999.90;;;24.60;84.10;;;;;;5037417;28;20036;-70
2021/07/17 00:46:08;;;;;;;1999.90;999.90;;;24.50;84.10;;;;;;5067526;28;20032;-71
2021/07/17 00:48:36;;;;;;;1999.90;999.90;;;24.50;84.00;;;;;;5067985;28;20103;-70
2021/07/17 00:51:01;;;;;;;1999.90;999.90;;;24.50;84.10;;;;;;5071394;28;20024;-70
2021/07/17 00:53:27;;;;;;;1999.90;999.90;;;24.50;84.80;;;;;;5050835;28;20025;-70
2021/07/17 00:55:54;;;;;;;1999.90;999.90;;;24.40;84.20;;;;;;5071588;28;20031;-71
2021/07/17 00:58:26;;;;;;;1999.90;999.90;;;24.40;84.30;;;;;;5066738;28;20040;-71
2021/07/17 01:00:52;;;;;;;1999.90;999.90;;;24.40;84.40;;;;;;5070765;28;20162;-71
2021/07/17 01:03:19;;;;;;;1999.90;999.90;;;24.30;84.40;;;;;;5048693;28;20452;-71
2021/07/17 01:05:47;;;;;;;1999.90;999.90;;;24.30;84.50;;;;;;5052701;28;20024;-71
2021/07/17 01:08:14;;;;;;;1999.90;999.90;;;24.30;84.50;;;;;;5052587;28;20385;-71
2021/07/17 01:10:40;;;;;;;1999.90;999.90;;;24.30;84.60;;;;;;5059801;28;20568;-70
2021/07/17 01:13:06;;;;;;;1999.90;999.90;;;24.20;84.50;;;;;;5071296;28;20108;-71
2021/07/17 01:15:32;;;;;;;1999.90;999.90;;;24.30;84.50;;;;;;5066695;28;20042;-71
2021/07/17 01:17:58;;;;;;;1999.90;999.90;;;24.20;84.60;;;;;;5063446;28;20029;-71
2021/07/17 01:20:25;;;;;;;1999.90;999.90;;;24.20;84.70;;;;;;5051613;28;20040;-71
2021/07/17 01:22:52;;;;;;;1999.90;999.90;;;24.20;84.70;;;;;;5071372;28;20047;-71
2021/07/17 01:25:23;;;;;;;1999.90;999.90;;;24.20;84.80;;;;;;5071185;28;20090;-71
2021/07/17 01:27:51;;;;;;;1999.90;999.90;;;24.20;85.10;;;;;;5044049;28;20431;-71
2021/07/17 01:30:20;;;;;;;1999.90;999.90;;;24.10;85.30;;;;;;5071037;28;20024;-70
2021/07/17 01:32:47;;;;;;;1999.90;999.90;;;24.10;85.50;;;;;;5081083;28;20040;-70
2021/07/17 01:35:13;;;;;;;1999.90;999.90;;;24.10;86.30;;;;;;5068565;28;20023;-70
2021/07/17 01:37:39;;;;;;;1999.90;999.90;;;24.10;85.60;;;;;;5068657;28;20093;-70
2021/07/17 01:40:07;;;;;;;1999.90;999.90;;;24.10;85.70;;;;;;5053681;28;20512;-69
2021/07/17 01:42:37;;;;;;;1999.90;999.90;;;24.10;85.60;;;;;;5074580;28;20488;-69
2021/07/17 01:45:05;;;;;;;1999.90;999.90;;;24.10;85.70;;;;;;5070734;28;20035;-69
2021/07/17 01:47:30;;;;;;;1999.90;999.90;;;24.10;85.70;;;;;;5052319;28;20044;-69
2021/07/17 01:49:58;;;;;;;1999.90;999.90;;;24.00;85.60;;;;;;5068546;28;20029;-69
2021/07/17 01:52:24;;;;;;;1999.90;999.90;;;24.10;85.70;;;;;;5069947;28;20032;-67
2021/07/17 01:54:49;;;;;;;1999.90;999.90;;;24.10;85.60;;;;;;5068112;28;20346;-67
2021/07/17 01:57:15;;;;;;;1999.90;999.90;;;24.10;86.30;;;;;;5070114;28;20025;-67
2021/07/17 01:59:45;;;;;;;1999.90;999.90;;;24.10;85.70;;;;;;5070220;28;20021;-68
2021/07/17 02:02:12;;;;;;;1999.90;999.90;;;24.10;85.50;;;;;;5066671;28;20053;-67
2021/07/17 02:04:37;;;;;;;1999.90;999.90;;;24.00;85.50;;;;;;5051890;28;20056;-68
2021/07/17 02:07:04;;;;;;;1999.90;999.90;;;24.00;85.70;;;;;;5067501;28;20114;-67
2021/07/17 02:09:30;;;;;;;1999.90;999.90;;;24.00;85.70;;;;;;5066257;28;20032;-67
2021/07/17 02:11:56;;;;;;;1999.90;999.90;;;24.00;85.80;;;;;;5066392;28;20688;-67
2021/07/17 02:14:22;;;;;;;1999.90;999.90;;;24.00;85.80;;;;;;5073683;28;20533;-69
2021/07/17 02:16:48;;;;;;;1999.90;999.90;;;24.00;85.80;;;;;;5071036;28;20029;-68
2021/07/17 02:19:22;;;;;;;1999.90;999.90;;;24.00;85.90;;;;;;5068265;28;20031;-67
2021/07/17 02:21:49;;;;;;;1999.90;999.90;;;24.00;85.80;;;;;;5062191;28;20585;-67
2021/07/17 02:24:16;;;;;;;1999.90;999.90;;;24.00;86.10;;;;;;5055368;28;20116;-67
2021/07/17 02:26:43;;;;;;;1999.90;999.90;;;24.00;86.20;;;;;;5074103;28;20025;-67
2021/07/17 02:29:10;;;;;;;1999.90;999.90;;;24.10;86.20;;;;;;5073219;28;20025;-67
2021/07/17 02:31:36;;;;;;;1999.90;999.90;;;24.10;86.20;;;;;;5072955;28;20129;-68
2021/07/17 02:34:04;;;;;;;1999.90;999.90;;;24.10;86.30;;;;;;5051076;28;20202;-68
2021/07/17 02:36:30;;;;;;;1999.90;999.90;;;24.10;86.30;;;;;;5065451;28;20032;-67
2021/07/17 02:38:55;;;;;;;1999.90;999.90;;;24.10;86.40;;;;;;5055069;28;20017;-67
2021/07/17 02:41:22;;;;;;;1999.90;999.90;;;24.20;86.30;;;;;;5049603;28;20503;-67
2021/07/17 02:43:48;;;;;;;1999.90;999.90;;;24.20;86.20;;;;;;5059617;28;20099;-67
2021/07/17 02:46:14;;;;;;;1999.90;999.90;;;24.30;86.30;;;;;;5071842;28;20120;-67
2021/07/17 02:48:40;;;;;;;1999.90;999.90;;;24.30;86.20;;;;;;5055184;28;20414;-67
2021/07/17 02:51:05;;;;;;;1999.90;999.90;;;24.30;86.10;;;;;;5068964;28;20066;-68
2021/07/17 02:53:31;;;;;;;1999.90;999.90;;;24.30;86.00;;;;;;5073209;28;20104;-67
2021/07/17 02:55:57;;;;;;;1999.90;999.90;;;24.30;86.00;;;;;;5068463;28;20020;-68
2021/07/17 02:58:23;;;;;;;1999.90;999.90;;;24.40;86.00;;;;;;5073330;28;20078;-67
2021/07/17 03:00:53;;;;;;;1999.90;999.90;;;24.40;85.90;;;;;;5052729;28;20067;-67
2021/07/17 03:03:21;;;;;;;1999.90;999.90;;;24.50;85.90;;;;;;5047309;28;20032;-67
2021/07/17 03:05:46;;;;;;;1999.90;999.90;;;24.50;85.70;;;;;;5050835;28;20366;-67
2021/07/17 03:08:15;;;;;;;1999.90;999.90;;;24.50;85.60;;;;;;5070178;28;20036;-67
2021/07/17 03:10:42;;;;;;;1999.90;999.90;;;24.60;85.60;;;;;;5059851;28;20036;-67
2021/07/17 03:13:08;;;;;;;1999.90;999.90;;;24.60;85.50;;;;;;5067216;28;20021;-67
2021/07/17 03:15:34;;;;;;;1999.90;999.90;;;24.70;85.30;;;;;;5065985;28;20028;-68
2021/07/17 03:18:00;;;;;;;1999.90;999.90;;;24.70;85.10;;;;;;5072505;28;20032;-68
2021/07/17 03:20:26;;;;;;;1999.90;999.90;;;24.70;85.00;;;;;;5054569;28;20116;-68
2021/07/17 03:22:52;;;;;;;1999.90;999.90;;;24.70;84.70;;;;;;5070839;28;20028;-68
2021/07/17 03:25:18;;;;;;;1999.90;999.90;;;24.80;84.70;;;;;;5076476;28;20436;-67
2021/07/17 03:27:43;;;;;;;1999.90;999.90;;;24.90;84.60;;;;;;5066501;28;20017;-67
2021/07/17 03:30:10;;;;;;;1999.90;999.90;;;24.90;84.30;;;;;;5072418;28;20447;-67
2021/07/17 03:32:36;;;;;;;1999.90;999.90;;;25.00;84.00;;;;;;5050571;28;20028;-66
2021/07/17 03:35:03;;;;;;;1999.90;999.90;;;25.00;83.80;;;;;;5070690;28;20357;-66
2021/07/17 03:37:29;;;;;;;1999.90;999.90;;;25.10;83.20;;;;;;5053868;28;20029;-66
2021/07/17 03:39:55;;;;;;;1999.90;999.90;;;25.20;83.10;;;;;;5070386;28;20091;-68
2021/07/17 03:42:21;;;;;;;1999.90;999.90;;;25.20;82.50;;;;;;5072344;28;20469;-68
2021/07/17 03:44:47;;;;;;;1999.90;999.90;;;25.20;82.10;;;;;;5070726;28;20028;-66
2021/07/17 03:47:12;;;;;;;1999.90;999.90;;;25.30;81.80;;;;;;5071183;28;20440;-66
2021/07/17 03:49:38;;;;;;;1999.90;999.90;;;25.40;81.50;;;;;;5072284;28;20033;-68
2021/07/17 03:52:04;;;;;;;1999.90;999.90;;;25.50;81.40;;;;;;5042142;28;20037;-67
2021/07/17 03:54:30;;;;;;;1999.90;999.90;;;25.60;80.60;;;;;;5052095;28;20084;-67
2021/07/17 03:56:56;;;;;;;1999.90;999.90;;;25.70;80.20;;;;;;5072242;28;20017;-67
2021/07/17 03:59:22;;;;;;;1999.90;999.90;;;25.70;79.60;;;;;;5053275;28;20048;-67
2021/07/17 04:01:47;;;;;;;1999.90;999.90;;;25.70;79.40;;;;;;5060502;28;20094;-67
2021/07/17 04:04:13;;;;;;;1999.90;999.90;;;25.80;79.30;;;;;;5068777;28;20114;-67
2021/07/17 04:06:40;;;;;;;1999.90;999.90;;;25.90;79.20;;;;;;5049146;28;20096;-68
2021/07/17 04:09:06;;;;;;;1999.90;999.90;;;26.00;78.50;;;;;;5069030;28;20390;-67
2021/07/17 04:11:33;;;;;;;1999.90;999.90;;;26.00;78.10;;;;;;5050696;28;20024;-67
2021/07/17 04:13:59;;;;;;;1999.90;999.90;;;26.10;77.90;;;;;;5071793;28;20069;-69
2021/07/17 04:16:24;;;;;;;1999.90;999.90;;;26.10;77.80;;;;;;5048652;28;20025;-67
2021/07/17 04:18:50;;;;;;;1999.90;999.90;;;26.20;77.90;;;;;;5067186;28;20342;-68
2021/07/17 04:21:16;;;;;;;1999.90;999.90;;;26.30;78.00;;;;;;5067124;28;20020;-68
2021/07/17 04:23:42;;;;;;;1999.90;999.90;;;26.30;78.30;;;;;;5067954;28;20083;-68
2021/07/17 04:26:08;;;;;;;1999.90;999.90;;;26.40;78.20;;;;;;5069430;28;20028;-68
2021/07/17 04:28:34;;;;;;;1999.90;999.90;;;26.40;78.00;;;;;;5064237;28;20021;-67
2021/07/17 04:31:02;;;;;;;1999.90;999.90;;;26.50;78.20;;;;;;5053679;28;20020;-68
2021/07/17 04:33:27;;;;;;;1999.90;999.90;;;26.50;78.00;;;;;;5053922;28;20028;-68
2021/07/17 04:35:53;;;;;;;1999.90;999.90;;;26.50;77.80;;;;;;5068239;28;20043;-68
2021/07/17 04:38:19;;;;;;;1999.90;999.90;;;26.50;77.80;;;;;;5071025;28;20055;-68
2021/07/17 04:40:45;;;;;;;1999.90;999.90;;;26.50;77.90;;;;;;5048697;28;20017;-68
2021/07/17 04:43:11;;;;;;;1999.90;999.90;;;26.60;77.70;;;;;;5053143;28;20032;-68
2021/07/17 04:45:37;;;;;;;1999.90;999.90;;;26.70;77.70;;;;;;5067927;28;20029;-68
2021/07/17 04:48:06;;;;;;;1999.90;999.90;;;26.70;77.60;;;;;;5050116;28;20036;-67
2021/07/17 04:50:33;;;;;;;1999.90;999.90;;;26.80;77.50;;;;;;5049143;28;20025;-68
2021/07/17 04:52:59;;;;;;;1999.90;999.90;;;26.90;76.70;;;;;;5066809;28;20095;-68
2021/07/17 04:55:26;;;;;;;1999.90;999.90;;;26.90;76.50;;;;;;5072188;28;20163;-68
2021/07/17 04:57:52;;;;;;;1999.90;999.90;;;26.90;76.50;;;;;;5068764;28;20100;-69
2021/07/17 05:00:19;;;;;;;1999.90;999.90;;;27.00;76.30;;;;;;5052525;28;20158;-69
2021/07/17 05:02:49;;;;;;;1999.90;999.90;;;27.10;75.50;;;;;;5064337;28;20036;-69
2021/07/17 05:05:19;;;;;;;1999.90;999.90;;;27.10;75.10;;;;;;5042852;28;20025;-68
2021/07/17 05:07:45;;;;;;;1999.90;999.90;;;27.10;74.90;;;;;;5046601;28;20021;-68
2021/07/17 05:10:16;;;;;;;1999.90;999.90;;;27.20;74.50;;;;;;5071513;28;20052;-72
2021/07/17 05:12:42;;;;;;;1999.90;999.90;;;27.30;74.30;;;;;;5065683;28;20135;-71
2021/07/17 05:15:12;;;;;;;1999.90;999.90;;;27.30;73.60;;;;;;5070980;28;20040;-69
2021/07/17 05:17:38;;;;;;;1999.90;999.90;;;27.30;73.60;;;;;;5071433;28;20052;-69
2021/07/17 05:20:06;;;;;;;1999.90;999.90;;;27.40;74.00;;;;;;5073123;28;20020;-69
2021/07/17 05:22:32;;;;;;;1999.90;999.90;;;27.50;73.60;;;;;;5071862;28;20021;-69
2021/07/17 05:24:58;;;;;;;1999.90;999.90;;;27.50;73.20;;;;;;5071958;28;20106;-70
2021/07/17 05:27:23;;;;;;;1999.90;999.90;;;27.50;72.90;;;;;;5073474;28;20146;-70
2021/07/17 05:29:49;;;;;;;1999.90;999.90;;;27.50;72.90;;;;;;5066022;28;20067;-69
2021/07/17 05:32:16;;;;;;;1999.90;999.90;;;27.60;72.80;;;;;;5073953;28;20024;-69
2021/07/17 05:34:42;;;;;;;1999.90;999.90;;;27.60;72.40;;;;;;5041994;28;20104;-69
2021/07/17 05:37:09;;;;;;;1999.90;999.90;;;27.70;72.30;;;;;;5070134;28;20070;-69
2021/07/17 05:39:36;;;;;;;1999.90;999.90;;;27.70;72.20;;;;;;5068004;28;20721;-70
2021/07/17 05:42:02;;;;;;;1999.90;999.90;;;27.80;71.90;;;;;;5070759;28;20017;-70
2021/07/17 05:44:28;;;;;;;1999.90;999.90;;;27.90;72.70;;;;;;5071732;28;20513;-70
2021/07/17 05:46:53;;;;;;;1999.90;999.90;;;27.90;71.60;;;;;;5069267;28;20108;-70
2021/07/17 05:49:22;;;;;;;1999.90;999.90;;;27.90;71.60;;;;;;5073567;28;20032;-70
2021/07/17 05:51:48;;;;;;;1999.90;999.90;;;28.00;71.10;;;;;;5074512;28;20048;-69
2021/07/17 05:54:17;;;;;;;1999.90;999.90;;;28.00;70.90;;;;;;5071177;28;20056;-70
2021/07/17 05:56:42;;;;;;;1999.90;999.90;;;28.00;70.80;;;;;;5067031;28;20386;-70
2021/07/17 05:59:08;;;;;;;1999.90;999.90;;;28.10;70.90;;;;;;5068226;28;20021;-69
2021/07/17 06:01:34;;;;;;;1999.90;999.90;;;28.10;70.30;;;;;;5055608;28;20068;-69
2021/07/17 06:04:01;;;;;;;1999.90;999.90;;;28.00;70.20;;;;;;5044269;28;20053;-69
2021/07/17 06:06:27;;;;;;;1999.90;999.90;;;28.00;70.10;;;;;;5072895;28;20108;-70
2021/07/17 06:08:53;;;;;;;1999.90;999.90;;;28.00;70.40;;;;;;5073796;28;20040;-69
2021/07/17 06:11:19;;;;;;;1999.90;999.90;;;28.10;70.40;;;;;;5065662;28;20051;-70
2021/07/17 06:13:44;;;;;;;1999.90;999.90;;;28.10;70.00;;;;;;5070813;28;20112;-69
2021/07/17 06:16:10;;;;;;;1999.90;999.90;;;28.20;70.30;;;;;;5071906;28;20027;-69
2021/07/17 06:18:36;;;;;;;1999.90;999.90;;;28.30;70.30;;;;;;5073957;28;20444;-69
2021/07/17 06:21:01;;;;;;;1999.90;999.90;;;28.40;69.90;;;;;;5073570;28;20025;-69
2021/07/17 06:23:27;;;;;;;1999.90;999.90;;;28.40;69.60;;;;;;5072712;28;20024;-69
2021/07/17 06:25:53;;;;;;;1999.90;999.90;;;28.50;69.70;;;;;;5052403;28;20025;-69
2021/07/17 06:28:19;;;;;;;1999.90;999.90;;;28.60;69.80;;;;;;5049090;28;20029;-69
2021/07/17 06:30:44;;;;;;;1999.90;999.90;;;28.70;69.40;;;;;;5060944;28;20382;-71
2021/07/17 06:33:10;;;;;;;1999.90;999.90;;;28.80;69.20;;;;;;5045029;28;20028;-69
2021/07/17 06:35:36;;;;;;;1999.90;999.90;;;28.90;69.20;;;;;;5064877;28;20036;-69
2021/07/17 06:38:02;;;;;;;1999.90;999.90;;;28.90;68.70;;;;;;5072775;28;20020;-69
2021/07/17 06:40:28;;;;;;;1999.90;999.90;;;29.00;68.70;;;;;;5071056;28;20032;-69
2021/07/17 06:42:54;;;;;;;1999.90;999.90;;;29.10;68.20;;;;;;5065306;28;20028;-69
2021/07/17 06:45:20;;;;;;;1999.90;999.90;;;29.10;68.40;;;;;;5071019;28;20040;-70
2021/07/17 06:47:47;;;;;;;1999.90;999.90;;;29.20;68.20;;;;;;5069289;28;20024;-69
2021/07/17 06:50:14;;;;;;;1999.90;999.90;;;29.20;68.00;;;;;;5073078;28;20035;-69
2021/07/17 06:52:40;;;;;;;1999.90;999.90;;;29.30;68.20;;;;;;5053791;28;20477;-70
2021/07/17 06:55:08;;;;;;;1999.90;999.90;;;29.30;67.80;;;;;;5072430;28;20032;-70
2021/07/17 06:57:36;;;;;;;1999.90;999.90;;;29.50;67.20;;;;;;5070516;28;20056;-69
2021/07/17 07:00:07;;;;;;;1999.90;999.90;;;29.50;66.90;;;;;;5072747;28;20043;-69
2021/07/17 07:02:32;;;;;;;1999.90;999.90;;;29.40;66.00;;;;;;5071732;28;20043;-70
2021/07/17 07:04:58;;;;;;;1999.90;999.90;;;29.50;66.70;;;;;;5070892;28;20035;-69
2021/07/17 07:07:24;;;;;;;1999.90;999.90;;;29.50;66.90;;;;;;5054444;28;20094;-69
2021/07/17 07:09:49;;;;;;;1999.90;999.90;;;29.60;67.10;;;;;;5053703;28;20392;-70
2021/07/17 07:12:16;;;;;;;1999.90;999.90;;;29.70;67.30;;;;;;5061936;28;20029;-70
2021/07/17 07:14:42;;;;;;;1999.90;999.90;;;29.80;66.60;;;;;;5062830;28;20113;-70
2021/07/17 07:17:08;;;;;;;1999.90;999.90;;;29.90;66.30;;;;;;5065375;28;20095;-71
2021/07/17 07:19:33;;;;;;;1999.90;999.90;;;30.00;66.30;;;;;;5066921;28;20025;-69
2021/07/17 07:21:59;;;;;;;1999.90;999.90;;;30.10;65.90;;;;;;5043165;28;20028;-69
2021/07/17 07:24:25;;;;;;;1999.90;999.90;;;30.10;65.50;;;;;;5041665;28;20090;-70
2021/07/17 07:26:52;;;;;;;1999.90;999.90;;;30.20;65.30;;;;;;5066137;28;20029;-69
2021/07/17 07:29:18;;;;;;;1999.90;999.90;;;30.30;64.80;;;;;;5064198;28;20078;-70
2021/07/17 07:31:43;;;;;;;1999.90;999.90;;;30.30;64.40;;;;;;5064551;28;20096;-69
2021/07/17 07:34:09;;;;;;;1999.90;999.90;;;30.40;64.20;;;;;;5067396;28;20545;-69
2021/07/17 07:36:35;;;;;;;1999.90;999.90;;;30.40;63.90;;;;;;5068032;28;20501;-71
2021/07/17 07:39:01;;;;;;;1999.90;999.90;;;30.40;64.00;;;;;;5048710;28;20013;-70
2021/07/17 07:41:26;;;;;;;1999.90;999.90;;;30.40;64.20;;;;;;5058028;28;20060;-70
2021/07/17 07:43:52;;;;;;;1999.90;999.90;;;30.50;64.00;;;;;;5061306;28;20490;-68
2021/07/17 07:46:18;;;;;;;1999.90;999.90;;;30.50;63.80;;;;;;5066070;28;20032;-68
2021/07/17 07:48:44;;;;;;;1999.90;999.90;;;30.60;63.50;;;;;;5053653;28;20051;-68
2021/07/17 07:51:10;;;;;;;1999.90;999.90;;;30.70;62.90;;;;;;5054078;28;20032;-69
2021/07/17 07:53:36;;;;;;;1999.90;999.90;;;30.70;62.80;;;;;;5065287;28;20064;-68
2021/07/17 07:56:02;;;;;;;1999.90;999.90;;;30.80;62.90;;;;;;5069146;28;20024;-69
2021/07/17 07:58:29;;;;;;;1999.90;999.90;;;30.80;63.00;;;;;;5064521;28;20100;-68
2021/07/17 08:00:55;;;;;;;1999.90;999.90;;;30.90;63.20;;;;;;5065327;28;20493;-69
2021/07/17 08:03:21;;;;;;;1999.90;999.90;;;30.90;62.50;;;;;;5070688;28;20093;-67
2021/07/17 08:05:47;;;;;;;1999.90;999.90;;;31.00;62.30;;;;;;5068280;28;20469;-68
2021/07/17 08:08:14;;;;;;;1999.90;999.90;;;31.10;61.90;;;;;;5063714;28;20060;-68
2021/07/17 08:10:39;;;;;;;1999.90;999.90;;;31.10;62.30;;;;;;5062579;28;20036;-69
2021/07/17 08:13:05;;;;;;;1999.90;999.90;;;31.20;61.90;;;;;;5067728;28;20365;-69
2021/07/17 08:15:32;;;;;;;1999.90;999.90;;;31.20;61.30;;;;;;5067478;28;20032;-68
2021/07/17 08:17:57;;;;;;;1999.90;999.90;;;31.30;60.90;;;;;;5069106;28;20027;-68
2021/07/17 08:20:24;;;;;;;1999.90;999.90;;;31.40;60.90;;;;;;5069095;28;20024;-69
2021/07/17 08:22:50;;;;;;;1999.90;999.90;;;31.50;60.80;;;;;;5067652;28;20024;-69
2021/07/17 08:25:16;;;;;;;1999.90;999.90;;;31.50;60.40;;;;;;5058646;28;20024;-69
2021/07/17 08:27:42;;;;;;;1999.90;999.90;;;31.60;60.40;;;;;;5048477;28;20033;-69
2021/07/17 08:30:11;;;;;;;1999.90;999.90;;;31.60;59.60;;;;;;5064662;28;20081;-68
2021/07/17 08:32:37;;;;;;;1999.90;999.90;;;31.70;60.10;;;;;;5051889;28;20082;-69
2021/07/17 08:35:04;;;;;;;1999.90;999.90;;;31.80;60.10;;;;;;5070047;28;20428;-69
2021/07/17 08:37:29;;;;;;;1999.90;999.90;;;31.80;59.80;;;;;;5070917;28;20020;-69
2021/07/17 08:39:55;;;;;;;1999.90;999.90;;;31.90;59.30;;;;;;5071247;28;20488;-69
2021/07/17 08:42:25;;;;;;;1999.90;999.90;;;32.00;58.80;;;;;;5036664;28;20033;-69
2021/07/17 08:44:54;;;;;;;1999.90;999.90;;;32.00;59.00;;;;;;5062630;28;20158;-69
2021/07/17 08:47:20;;;;;;;1999.90;999.90;;;32.10;58.90;;;;;;5062849;28;20458;-68
2021/07/17 08:49:47;;;;;;;1999.90;999.90;;;32.20;59.10;;;;;;5065290;28;20024;-69
2021/07/17 08:52:13;;;;;;;1999.90;999.90;;;32.30;58.70;;;;;;5068613;28;20085;-69
2021/07/17 08:54:40;;;;;;;1999.90;999.90;;;32.30;58.20;;;;;;5072528;28;20098;-68
2021/07/17 08:57:10;;;;;;;1999.90;999.90;;;32.40;58.10;;;;;;5073412;28;20142;-69
2021/07/17 08:59:37;;;;;;;1999.90;999.90;;;32.40;57.40;;;;;;5055621;28;20021;-69
2021/07/17 09:02:04;;;;;;;1999.90;999.90;;;32.40;57.10;;;;;;5071552;28;20044;-69
2021/07/17 09:04:29;;;;;;;1999.90;999.90;;;32.50;57.10;;;;;;5051750;28;20031;-69
2021/07/17 09:06:55;;;;;;;1999.90;999.90;;;32.50;56.50;;;;;;5071674;28;20024;-71
2021/07/17 09:09:31;;;;;;;1999.90;999.90;;;32.50;56.60;;;;;;5055327;28;20461;-69
2021/07/17 09:11:59;;;;;;;1999.90;999.90;;;32.60;56.10;;;;;;5072729;28;20025;-69
2021/07/17 09:14:53;;;;;;;1999.90;999.90;;;32.60;56.50;;;;;;5069868;28;20170;-69
2021/07/17 09:17:26;;;;;;;1999.90;999.90;;;32.70;55.60;;;;;;5049173;28;20504;-68
2021/07/17 09:19:58;;;;;;;1999.90;999.90;;;32.90;55.60;;;;;;5055390;28;20031;-69
2021/07/17 09:22:38;;;;;;;1999.90;999.90;;;32.90;55.70;;;;;;5056999;28;20032;-68
2021/07/17 09:25:12;;;;;;;1999.90;999.90;;;32.90;54.80;;;;;;5072950;28;20497;-68
2021/07/17 09:27:38;;;;;;;1999.90;999.90;;;33.00;55.20;;;;;;5073812;28;20024;-68
2021/07/17 09:30:24;;;;;;;1999.90;999.90;;;33.00;55.10;;;;;;5073760;28;20024;-69
2021/07/17 09:33:00;;;;;;;1999.90;999.90;;;33.10;55.20;;;;;;5070268;28;20111;-69
2021/07/17 09:35:26;;;;;;;1999.90;999.90;;;33.20;55.20;;;;;;5045544;28;20032;-69
2021/07/17 09:37:56;;;;;;;1999.90;999.90;;;33.30;55.50;;;;;;5073731;28;20043;-68
2021/07/17 09:40:25;;;;;;;1999.90;999.90;;;33.40;55.20;;;;;;5072711;28;20057;-68
2021/07/17 09:42:51;;;;;;;1999.90;999.90;;;33.40;54.30;;;;;;5070410;28;20153;-69
2021/07/17 09:45:36;;;;;;;1999.90;999.90;;;33.40;54.60;;;;;;5066460;28;20061;-69
2021/07/17 09:48:23;;;;;;;1999.90;999.90;;;33.50;54.30;;;;;;5070531;28;20423;-69
2021/07/17 09:50:50;;;;;;;1999.90;999.90;;;33.50;53.90;;;;;;5072908;28;20021;-69
2021/07/17 09:53:35;;;;;;;1999.90;999.90;;;33.50;54.00;;;;;;5058978;28;20104;-70
2021/07/17 09:56:09;;;;;;;1999.90;999.90;;;33.60;53.10;;;;;;5067177;28;20031;-68
2021/07/17 09:58:37;;;;;;;1999.90;999.90;;;33.60;52.00;;;;;;5062825;28;20044;-69
2021/07/17 10:01:23;;;;;;;1999.90;999.90;;;33.50;52.90;;;;;;5071573;28;20120;-69
2021/07/17 10:04:00;;;;;;;1999.90;999.90;;;33.60;53.00;;;;;;5041929;28;20032;-68
2021/07/17 10:06:58;;;;;;;1999.90;999.90;;;33.60;52.80;;;;;;5061781;28;20032;-69
2021/07/17 10:09:30;;;;;;;1999.90;999.90;;;33.70;52.80;;;;;;5066370;28;20021;-69
2021/07/17 10:11:59;;;;;;;;;;;33.80;52.70;;;;;;5069206;28;20442;-69
2021/07/17 10:14:28;;;;;;;1999.90;999.90;;;33.70;52.50;;;;;;5068725;28;19971;-69
2021/07/17 10:16:56;;;;;;;1999.90;999.90;;;33.70;52.30;;;;;;5069827;28;20044;-68
2021/07/17 10:19:24;;;;;;;1999.90;999.90;;;33.70;52.30;;;;;;5052352;28;20099;-68
2021/07/17 10:21:50;;;;;;;1999.90;999.90;;;33.60;52.00;;;;;;5070816;28;20473;-69
2021/07/17 10:24:17;;;;;;;1999.90;999.90;;;33.60;52.20;;;;;;5070623;28;20105;-68
2021/07/17 10:26:43;;;;;;;1999.90;999.90;;;33.70;52.70;;;;;;5072223;28;20024;-69
2021/07/17 10:29:11;;;;;;;1999.90;999.90;;;33.70;52.60;;;;;;5067322;28;20374;-69
2021/07/17 10:31:38;;;;;;;1999.90;999.90;;;33.90;51.80;;;;;;5068646;28;20716;-69
2021/07/17 10:34:05;;;;;;;1999.90;999.90;;;33.90;51.80;;;;;;5072635;28;20028;-69
2021/07/17 10:36:36;;;;;;;1999.90;999.90;;;33.90;52.10;;;;;;5067273;28;20496;-69
2021/07/17 10:39:06;;;;;;;1999.90;999.90;;;34.00;51.80;;;;;;5071155;28;20027;-69
2021/07/17 10:41:37;;;;;;;1999.90;999.90;;;34.00;51.70;;;;;;5072349;28;20108;-69
2021/07/17 10:44:04;;;;;;;1999.90;999.90;;;34.00;51.10;;;;;;5054145;28;20354;-69
2021/07/17 10:46:41;;;;;;;1999.90;999.90;;;34.10;51.00;;;;;;5060143;28;20029;-69
2021/07/17 10:49:10;;;;;;;1999.90;999.90;;;34.00;51.30;;;;;;5060160;28;20036;-69
2021/07/17 10:51:40;;;;;;;1999.90;999.90;;;34.00;51.40;;;;;;5045451;28;20024;-70
2021/07/17 10:54:11;;;;;;;1999.90;999.90;;;34.10;51.10;;;;;;5064450;28;20060;-69
2021/07/17 10:56:39;;;;;;;1999.90;999.90;;;34.10;50.90;;;;;;5070012;28;20021;-69
2021/07/17 10:59:28;;;;;;;1999.90;999.90;;;34.20;50.90;;;;;;5067379;28;20024;-70
2021/07/17 11:01:57;;;;;;;1999.90;999.90;;;34.20;50.30;;;;;;5058018;28;20033;-70
2021/07/17 11:04:29;;;;;;;1999.90;999.90;;;34.20;50.80;;;;;;5049398;28;20021;-69
2021/07/17 11:06:55;;;;;;;1999.90;999.90;;;34.20;50.90;;;;;;5071433;28;20089;-69
2021/07/17 11:09:30;;;;;;;1999.90;999.90;;;34.20;50.90;;;;;;5064855;28;20118;-68
2021/07/17 11:12:18;;;;;;;1999.90;999.90;;;34.30;50.50;;;;;;5072369;28;20533;-70
2021/07/17 11:14:44;;;;;;;1999.90;999.90;;;34.40;50.70;;;;;;5063733;28;20064;-69
2021/07/17 11:17:10;;;;;;;1999.90;999.90;;;34.60;50.70;;;;;;5063185;28;20092;-68
2021/07/17 11:19:36;;;;;;;1999.90;999.90;;;34.70;50.30;;;;;;5063433;28;20021;-68
2021/07/17 11:22:14;;;;;;;1999.90;999.90;;;34.70;50.10;;;;;;5064678;28;20036;-68
2021/07/17 11:24:41;;;;;;;1999.90;999.90;;;34.70;49.40;;;;;;5059294;28;20043;-68
2021/07/17 11:27:16;;;;;;;1999.90;999.90;;;34.60;49.40;;;;;;5037340;28;20029;-69
2021/07/17 11:29:50;;;;;;;1999.90;999.90;;;34.50;49.10;;;;;;5058696;28;20029;-69
2021/07/17 11:32:17;;;;;;;1999.90;999.90;;;34.40;49.60;;;;;;5057464;28;20032;-69
2021/07/17 11:34:51;;;;;;;1999.90;999.90;;;34.30;50.00;;;;;;5066383;28;20036;-69
2021/07/17 11:37:27;;;;;;;1999.90;999.90;;;34.20;50.20;;;;;;5045892;28;20112;-69
2021/07/17 11:39:58;;;;;;;1999.90;999.90;;;34.20;50.30;;;;;;5068172;28;20086;-69
2021/07/17 11:42:24;;;;;;;1999.90;999.90;;;34.30;51.10;;;;;;5067436;28;20327;-69
2021/07/17 11:44:52;;;;;;;1999.90;999.90;;;34.50;51.20;;;;;;5070908;28;20016;-69
2021/07/17 11:47:21;;;;;;;1999.90;999.90;;;34.70;51.00;;;;;;5070750;28;20029;-69
2021/07/17 11:49:52;;;;;;;1999.90;999.90;;;35.00;50.40;;;;;;5071619;28;20025;-69
2021/07/17 11:52:29;;;;;;;;;;;35.20;48.90;;;;;;5051893;28;20033;-70
2021/07/17 11:55:02;;;;;;;1999.90;999.90;;;35.10;49.30;;;;;;5061160;28;19912;-70
2021/07/17 11:57:29;;;;;;;1999.90;999.90;;;35.20;49.50;;;;;;5066486;28;20147;-69
2021/07/17 12:00:14;;;;;;;1999.90;999.90;;;35.40;49.90;;;;;;5068350;28;20020;-69
2021/07/17 12:02:40;;;;;;;1999.90;999.90;;;35.50;49.60;;;;;;5068715;28;20040;-69
2021/07/17 12:05:13;;;;;;;1999.90;999.90;;;35.50;49.30;;;;;;5067353;28;20354;-69